createdAt,value
2023-01-05T00:14:56.889Z,0.70
2023-01-05T00:20:20.710Z,0.30
2023-01-05T00:25:29.230Z,0.20
2023-01-05T00:30:37.607Z,0.20
2023-01-05T00:35:43.036Z,0.20
2023-01-05T00:40:48.788Z,0.37
2023-01-05T00:45:54.268Z,0.20
2023-01-05T00:50:59.530Z,0.40
2023-01-05T00:56:05.005Z,0.30
2023-01-05T01:01:16.696Z,0.30
2023-01-05T01:06:22.361Z,0.50
2023-01-05T01:11:27.994Z,0.40
2023-01-05T01:16:34.070Z,0.50
2023-01-05T01:21:39.696Z,0.70
2023-01-05T01:26:46.153Z,0.60
2023-01-05T01:31:54.204Z,0.90
2023-01-05T01:42:07.596Z,0.50
2023-01-05T01:47:17.109Z,0.20
2023-01-05T01:52:33.440Z,0.80
2023-01-05T01:57:49.220Z,0.57
2023-01-05T02:03:06.403Z,0.47
2023-01-05T02:13:59.438Z,0.60
2023-01-05T02:19:41.297Z,0.60
2023-01-05T02:25:32.856Z,0.70
2023-01-05T02:31:06.403Z,0.50
2023-01-05T02:36:41.685Z,0.70
2023-01-05T02:41:52.820Z,0.40
2023-01-05T02:53:04.973Z,0.70
2023-01-05T02:58:22.227Z,1.43
2023-01-05T03:03:33.179Z,0.80
2023-01-05T03:08:41.855Z,0.60
2023-01-05T03:13:52.169Z,0.60
2023-01-05T03:19:18.479Z,1.03
2023-01-05T03:24:46.211Z,0.80
2023-01-05T03:30:14.821Z,0.70
2023-01-05T03:35:34.198Z,0.60
2023-01-05T03:40:42.001Z,0.90
2023-01-05T03:45:49.727Z,0.37
2023-01-05T03:50:55.682Z,0.40
2023-01-05T03:56:02.672Z,0.40
2023-01-05T04:01:10.061Z,0.37
2023-01-05T04:06:19.623Z,0.40
2023-01-05T04:11:34.149Z,0.33
2023-01-05T04:16:52.971Z,0.60
2023-01-05T04:22:09.224Z,0.43
2023-01-05T04:27:19.082Z,0.40
2023-01-05T04:32:34.285Z,0.20
2023-01-05T04:37:51.082Z,0.47
2023-01-05T04:43:00.489Z,0.30
2023-01-05T04:48:11.389Z,0.73
2023-01-05T04:53:17.636Z,0.40
2023-01-05T04:58:24.558Z,0.50
2023-01-05T05:03:33.324Z,0.50
2023-01-05T05:08:41.514Z,0.30
2023-01-05T05:13:48.196Z,0.60
2023-01-05T05:18:53.496Z,0.40
2023-01-05T05:24:16.800Z,0.43
2023-01-05T05:29:24.491Z,0.33
2023-01-05T05:34:30.442Z,0.83
2023-01-05T05:39:35.875Z,0.30
2023-01-05T05:44:44.341Z,0.40
2023-01-05T05:49:58.308Z,0.53
2023-01-05T05:55:11.811Z,0.50
2023-01-05T06:00:29.843Z,0.50
2023-01-05T06:05:42.907Z,0.50
2023-01-05T06:10:52.776Z,0.73
2023-01-05T06:16:08.939Z,0.40
2023-01-05T06:21:17.892Z,0.47
2023-01-05T06:26:23.819Z,0.70
2023-01-05T06:31:32.535Z,0.70
2023-01-05T06:36:48.909Z,0.93
2023-01-05T06:41:54.305Z,1.07
2023-01-05T06:46:59.797Z,1.00
2023-01-05T06:52:05.105Z,0.50
2023-01-05T06:57:13.533Z,0.50
2023-01-05T07:02:27.126Z,1.70
2023-01-05T07:07:39.851Z,1.00
2023-01-05T07:12:54.495Z,1.50
2023-01-05T07:18:01.889Z,1.43
2023-01-05T07:23:14.294Z,0.53
2023-01-05T07:28:26.012Z,0.50
2023-01-05T07:33:39.516Z,0.83
2023-01-05T07:38:51.656Z,1.90
2023-01-05T07:44:00.609Z,3.30
2023-01-05T07:49:14.832Z,1.30
2023-01-05T07:54:25.445Z,2.00
2023-01-05T07:59:32.695Z,1.50
2023-01-05T08:04:40.146Z,2.03
2023-01-05T08:10:19.308Z,1.97
2023-01-05T08:15:39.590Z,1.07
2023-01-05T08:20:53.958Z,2.47
2023-01-05T08:26:15.704Z,1.40
2023-01-05T08:31:29.169Z,1.20
2023-01-05T08:36:41.674Z,1.57
2023-01-05T08:41:49.377Z,1.40
2023-01-05T08:46:56.327Z,1.20
2023-01-05T08:52:28.550Z,2.13
2023-01-05T08:57:34.054Z,1.10
2023-01-05T09:02:58.980Z,0.87
2023-01-05T09:08:15.999Z,1.30
2023-01-05T09:13:25.387Z,0.87
2023-01-05T09:18:57.282Z,0.70
2023-01-05T09:24:20.406Z,0.80
2023-01-05T09:29:39.107Z,0.80
2023-01-05T09:34:52.819Z,0.57
2023-01-05T09:39:58.146Z,0.57
2023-01-05T09:45:07.464Z,0.60
2023-01-05T09:50:23.973Z,0.90
2023-01-05T09:55:42.544Z,1.67
2023-01-05T10:01:06.644Z,0.60
2023-01-05T10:06:20.321Z,0.77
2023-01-05T10:12:02.193Z,0.60
2023-01-05T10:17:40.350Z,0.50
2023-01-05T10:22:55.529Z,0.80
2023-01-05T10:28:34.642Z,0.60
2023-01-05T10:33:59.017Z,0.73
2023-01-05T10:39:27.285Z,1.23
2023-01-05T10:44:50.302Z,0.70
2023-01-05T10:49:56.225Z,0.57
2023-01-05T10:55:09.746Z,0.50
2023-01-05T11:00:23.336Z,0.70
2023-01-05T11:05:46.689Z,0.70
2023-01-05T11:10:58.985Z,0.87
2023-01-05T11:16:13.531Z,0.90
2023-01-05T11:21:41.060Z,1.10
2023-01-05T11:26:55.243Z,1.20
2023-01-05T11:32:09.337Z,1.10
2023-01-05T11:37:20.316Z,1.33
2023-01-05T11:42:53.009Z,1.90
2023-01-05T11:47:58.947Z,0.67
2023-01-05T11:53:28.387Z,1.20
2023-01-05T11:58:38.268Z,1.13
2023-01-05T12:03:55.432Z,0.93
2023-01-05T12:09:10.808Z,0.67
2023-01-05T12:14:26.286Z,0.70
2023-01-05T12:19:36.548Z,0.70
2023-01-05T12:25:04.973Z,0.30
2023-01-05T12:32:48.124Z,0.73
2023-01-05T12:36:03.153Z,0.50
2023-01-05T12:41:17.842Z,0.50
2023-01-05T12:46:36.526Z,0.47
2023-01-05T12:51:50.467Z,0.70
2023-01-05T12:57:01.145Z,0.50
2023-01-05T13:02:26.856Z,0.60
2023-01-05T13:07:36.564Z,0.60
2023-01-05T13:12:57.419Z,0.80
2023-01-05T13:18:20.575Z,0.53
2023-01-05T13:23:49.838Z,1.40
2023-01-05T13:29:04.428Z,2.63
2023-01-05T13:34:25.740Z,0.90
2023-01-05T13:39:54.461Z,0.63
2023-01-05T13:45:36.093Z,0.50
2023-01-05T13:50:51.757Z,2.33
2023-01-05T13:56:03.638Z,11.57
2023-01-05T14:01:13.346Z,27.30
2023-01-05T14:06:34.918Z,9.43
2023-01-05T14:11:43.059Z,0.73
2023-01-05T14:16:50.403Z,1.93
2023-01-05T14:22:00.456Z,1.03
2023-01-05T14:27:20.658Z,1.03
2023-01-05T14:32:36.160Z,0.97
2023-01-05T14:37:47.055Z,1.17
2023-01-05T14:42:56.393Z,2.30
2023-01-05T14:48:12.747Z,1.97
2023-01-05T14:53:48.185Z,1.07
2023-01-05T14:59:02.357Z,3.10
2023-01-05T15:04:16.629Z,4.13
2023-01-05T15:09:31.374Z,0.67
2023-01-05T15:15:13.518Z,2.07
2023-01-05T15:20:52.459Z,0.73
2023-01-05T15:26:13.509Z,3.73
2023-01-05T15:31:34.313Z,1.77
2023-01-05T15:37:04.931Z,1.10
2023-01-05T15:42:11.898Z,1.00
2023-01-05T15:47:23.386Z,3.20
2023-01-05T15:52:39.753Z,4.07
2023-01-05T15:57:54.452Z,1.73
2023-01-05T16:03:02.988Z,2.83
2023-01-05T16:08:24.438Z,2.40
2023-01-05T16:13:55.536Z,0.70
2023-01-05T16:24:47.873Z,1.70
2023-01-05T16:30:49.375Z,1.27
2023-01-05T16:36:19.477Z,2.60
2023-01-05T16:41:32.857Z,1.20
2023-01-05T16:46:45.150Z,1.40
2023-01-05T16:52:11.223Z,2.10
2023-01-05T16:57:46.715Z,6.23
2023-01-05T17:08:32.152Z,13.83
2023-01-05T17:13:45.623Z,10.63
2023-01-05T17:18:53.878Z,11.30
2023-01-05T17:24:04.951Z,3.30
2023-01-05T17:29:13.198Z,3.23
2023-01-05T17:34:24.777Z,1.90
2023-01-05T17:39:49.815Z,1.53
2023-01-05T17:44:57.626Z,4.17
2023-01-05T17:50:10.152Z,3.20
2023-01-05T17:55:18.019Z,2.53
2023-01-05T18:00:37.687Z,5.70
2023-01-05T18:11:30.153Z,3.00
2023-01-05T18:16:36.043Z,3.43
2023-01-05T18:21:45.987Z,4.63
2023-01-05T18:26:54.030Z,1.33
2023-01-05T18:32:01.368Z,3.30
2023-01-05T18:37:22.210Z,6.10
2023-01-05T18:42:30.162Z,3.80
2023-01-05T18:47:38.592Z,5.03
2023-01-05T18:53:02.074Z,3.87
2023-01-05T18:58:12.451Z,10.97
2023-01-05T19:03:17.973Z,5.13
2023-01-05T19:08:27.553Z,19.90
2023-01-05T19:13:32.717Z,6.20
2023-01-05T19:18:40.084Z,5.17
2023-01-05T19:23:46.680Z,3.73
2023-01-05T19:28:55.796Z,6.53
2023-01-05T19:34:08.657Z,8.00
2023-01-05T19:39:17.099Z,6.00
2023-01-05T19:44:24.580Z,6.97
2023-01-05T19:49:31.610Z,7.87
2023-01-05T19:54:57.680Z,11.90
2023-01-05T20:00:04.510Z,10.57
2023-01-05T20:05:13.651Z,3.43
2023-01-05T20:10:24.954Z,2.90
2023-01-05T20:15:35.357Z,1.60
2023-01-05T20:20:42.859Z,3.93
2023-01-05T20:25:49.211Z,4.70
2023-01-05T20:30:56.613Z,1.63
2023-01-05T20:36:05.630Z,2.20
2023-01-05T20:41:24.876Z,2.90
2023-01-05T20:46:39.243Z,1.73
2023-01-05T20:51:46.015Z,3.13
2023-01-05T20:56:54.621Z,2.70
2023-01-05T21:02:12.290Z,2.07
2023-01-05T21:07:15.066Z,2.77
2023-01-05T21:12:31.354Z,6.27
2023-01-05T21:17:42.839Z,8.50
2023-01-05T21:22:51.029Z,6.73
2023-01-05T21:28:00.112Z,6.53
2023-01-05T21:33:14.002Z,5.57
2023-01-05T21:38:18.701Z,2.73
2023-01-05T21:43:24.873Z,3.87
2023-01-05T21:48:31.208Z,3.67
2023-01-05T21:53:55.267Z,3.23
2023-01-05T21:59:03.166Z,1.80
2023-01-05T22:04:09.162Z,2.30
2023-01-05T22:09:14.913Z,3.13
2023-01-05T22:14:27.413Z,7.43
2023-01-05T22:19:34.803Z,15.80
2023-01-05T22:24:40.399Z,10.53
2023-01-05T22:29:46.930Z,6.97
2023-01-05T22:34:53.621Z,3.50
2023-01-05T22:39:58.926Z,7.90
2023-01-05T22:45:07.922Z,5.50
2023-01-05T22:50:16.190Z,6.07
2023-01-05T22:55:23.420Z,4.90
2023-01-05T23:00:29.759Z,3.70
2023-01-05T23:05:41.656Z,3.67
2023-01-05T23:10:47.420Z,7.10
2023-01-05T23:15:57.263Z,3.50
2023-01-05T23:21:04.372Z,2.80
2023-01-05T23:26:12.068Z,3.27
2023-01-05T23:31:20.443Z,1.47
2023-01-05T23:36:27.305Z,1.37
2023-01-05T23:41:33.477Z,1.40
2023-01-05T23:46:39.197Z,1.47
2023-01-05T23:51:45.715Z,1.00
2023-01-05T23:56:50.884Z,0.87
